createdAt,value
2022-07-26T00:00:10.596Z,14.35
2022-07-26T00:02:39.248Z,15.95
2022-07-26T00:05:15.769Z,10.27
2022-07-26T00:07:44.699Z,10.77
2022-07-26T00:10:15.956Z,11.98
2022-07-26T00:12:44.323Z,14.13
2022-07-26T00:15:13.219Z,12.68
2022-07-26T00:17:41.546Z,10.85
2022-07-26T00:20:11.089Z,13.32
2022-07-26T00:22:41.627Z,12.63
2022-07-26T00:25:10.967Z,11.63
2022-07-26T00:27:40.692Z,11.25
2022-07-26T00:30:11.771Z,11.80
2022-07-26T00:32:40.613Z,12.00
2022-07-26T00:35:10.289Z,10.20
2022-07-26T00:37:39.064Z,13.77
2022-07-26T00:40:10.141Z,10.32
2022-07-26T00:42:40.470Z,14.77
2022-07-26T00:45:10.914Z,10.38
2022-07-26T00:47:39.600Z,11.40
2022-07-26T00:50:11.912Z,14.30
2022-07-26T00:52:42.466Z,12.20
2022-07-26T00:55:11.390Z,9.52
2022-07-26T00:57:42.522Z,11.63
2022-07-26T01:00:15.429Z,14.77
2022-07-26T01:02:44.891Z,13.25
2022-07-26T01:05:13.605Z,13.55
2022-07-26T01:07:42.605Z,12.35
2022-07-26T01:10:13.235Z,11.70
2022-07-26T01:12:44.693Z,11.75
2022-07-26T01:15:15.801Z,12.27
2022-07-26T01:17:45.415Z,13.32
2022-07-26T01:20:15.393Z,15.23
2022-07-26T01:22:45.022Z,12.50
2022-07-26T01:25:13.599Z,14.80
2022-07-26T01:27:42.313Z,12.15
2022-07-26T01:30:13.688Z,12.00
2022-07-26T01:32:42.058Z,13.05
2022-07-26T01:35:11.578Z,14.68
2022-07-26T01:37:39.964Z,15.15
2022-07-26T01:40:11.675Z,12.82
2022-07-26T01:42:41.178Z,13.77
2022-07-26T01:45:10.902Z,13.90
2022-07-26T01:47:40.044Z,11.93
2022-07-26T01:50:10.227Z,14.75
2022-07-26T01:52:39.353Z,14.45
2022-07-26T01:55:09.960Z,12.98
2022-07-26T01:57:38.645Z,14.18
2022-07-26T02:00:08.831Z,14.05
2022-07-26T02:02:37.532Z,12.25
2022-07-26T02:05:06.599Z,13.93
2022-07-26T02:07:43.858Z,13.27
2022-07-26T02:10:15.281Z,11.43
2022-07-26T02:12:43.875Z,15.50
2022-07-26T02:15:15.341Z,13.25
2022-07-26T02:17:44.566Z,13.65
2022-07-26T02:20:16.916Z,14.10
2022-07-26T02:22:45.146Z,11.25
2022-07-26T02:25:14.788Z,12.23
2022-07-26T02:27:43.083Z,13.70
2022-07-26T02:30:13.628Z,15.90
2022-07-26T02:32:43.845Z,14.25
2022-07-26T02:35:12.435Z,12.90
2022-07-26T02:37:43.490Z,17.35
2022-07-26T02:40:18.995Z,15.75
2022-07-26T02:42:48.179Z,13.18
2022-07-26T02:45:16.497Z,13.23
2022-07-26T02:47:49.321Z,15.80
2022-07-26T02:50:19.268Z,13.88
2022-07-26T02:52:48.897Z,14.55
2022-07-26T02:55:21.542Z,13.32
2022-07-26T02:57:50.434Z,14.65
2022-07-26T03:00:22.067Z,13.68
2022-07-26T03:02:51.345Z,19.05
2022-07-26T03:05:20.660Z,14.30
2022-07-26T03:07:49.011Z,12.38
2022-07-26T03:10:18.726Z,14.57
2022-07-26T03:12:47.064Z,17.35
2022-07-26T03:15:15.583Z,14.75
2022-07-26T03:17:43.796Z,11.10
2022-07-26T03:20:13.701Z,15.45
2022-07-26T03:22:42.133Z,14.13
2022-07-26T03:25:10.739Z,13.80
2022-07-26T03:27:40.363Z,14.15
2022-07-26T03:30:10.594Z,15.77
2022-07-26T03:32:38.886Z,15.43
2022-07-26T03:35:09.579Z,13.13
2022-07-26T03:37:46.272Z,10.82
2022-07-26T03:40:16.319Z,11.32
2022-07-26T03:42:46.568Z,12.05
2022-07-26T03:45:16.273Z,17.02
2022-07-26T03:47:45.307Z,10.77
2022-07-26T03:50:14.096Z,12.43
2022-07-26T03:52:42.455Z,15.57
2022-07-26T03:55:29.073Z,13.63
2022-07-26T03:57:59.142Z,10.02
2022-07-26T04:00:27.966Z,10.60
2022-07-26T04:02:56.404Z,9.38
2022-07-26T04:05:26.095Z,9.95
2022-07-26T04:07:55.862Z,9.93
2022-07-26T04:10:24.873Z,7.93
2022-07-26T04:12:53.590Z,11.70
2022-07-26T04:15:23.470Z,10.18
2022-07-26T04:17:51.763Z,9.05
2022-07-26T04:20:20.063Z,6.03
2022-07-26T04:22:48.355Z,7.00
2022-07-26T04:25:16.736Z,6.82
2022-07-26T04:27:45.605Z,16.17
2022-07-26T04:30:15.628Z,6.47
2022-07-26T04:32:46.919Z,5.43
2022-07-26T04:35:16.706Z,6.80
2022-07-26T04:37:46.273Z,7.50
2022-07-26T04:40:21.222Z,5.38
2022-07-26T04:42:50.587Z,5.57
2022-07-26T04:45:19.323Z,5.82
2022-07-26T04:47:51.586Z,5.30
2022-07-26T04:50:21.861Z,5.40
2022-07-26T04:52:51.653Z,6.65
2022-07-26T04:55:20.240Z,5.35
2022-07-26T04:57:49.342Z,4.40
2022-07-26T05:00:24.789Z,7.28
2022-07-26T05:02:57.958Z,10.13
2022-07-26T05:05:29.113Z,6.43
2022-07-26T05:08:00.906Z,6.43
2022-07-26T05:10:33.470Z,5.72
2022-07-26T05:13:03.832Z,7.85
2022-07-26T05:15:35.239Z,9.50
2022-07-26T05:18:10.682Z,5.97
2022-07-26T05:20:42.285Z,5.65
2022-07-26T05:23:11.351Z,5.78
2022-07-26T05:25:39.795Z,6.45
2022-07-26T05:28:08.091Z,5.65
2022-07-26T05:30:36.909Z,6.05
2022-07-26T05:33:06.772Z,5.03
2022-07-26T05:35:35.104Z,5.55
2022-07-26T05:38:03.359Z,6.43
2022-07-26T05:40:31.779Z,5.15
2022-07-26T05:43:00.167Z,4.10
2022-07-26T05:45:28.481Z,4.63
2022-07-26T05:47:56.797Z,5.80
2022-07-26T05:50:26.804Z,5.15
2022-07-26T05:52:55.438Z,5.57
2022-07-26T05:55:23.865Z,4.43
2022-07-26T05:57:52.496Z,4.25
2022-07-26T06:00:20.994Z,3.83
2022-07-26T06:02:49.614Z,3.97
2022-07-26T06:05:17.980Z,4.75
2022-07-26T06:07:47.731Z,3.55
2022-07-26T06:10:16.048Z,5.63
2022-07-26T06:12:44.355Z,4.30
2022-07-26T06:15:14.970Z,8.00
2022-07-26T06:17:44.152Z,5.68
2022-07-26T06:20:13.230Z,2.85
2022-07-26T06:22:41.630Z,3.97
2022-07-26T06:25:11.567Z,4.85
2022-07-26T06:27:39.869Z,5.18
2022-07-26T06:30:10.364Z,6.20
2022-07-26T06:32:39.278Z,5.07
2022-07-26T06:35:08.517Z,5.65
2022-07-26T06:37:38.658Z,9.82
2022-07-26T06:40:10.944Z,3.33
2022-07-26T06:42:40.135Z,3.22
2022-07-26T06:45:09.763Z,4.28
2022-07-26T06:47:38.413Z,5.13
2022-07-26T06:50:08.527Z,7.60
2022-07-26T06:52:36.957Z,3.85
2022-07-26T06:55:07.207Z,6.55
2022-07-26T06:57:40.295Z,4.70
2022-07-26T07:00:19.456Z,8.05
2022-07-26T07:02:47.830Z,4.60
2022-07-26T07:05:16.592Z,3.92
2022-07-26T07:07:45.327Z,4.05
2022-07-26T07:10:14.687Z,3.95
2022-07-26T07:12:44.948Z,3.83
2022-07-26T07:15:13.975Z,4.95
2022-07-26T07:17:42.310Z,4.35
2022-07-26T07:20:12.112Z,6.43
2022-07-26T07:22:40.391Z,3.30
2022-07-26T07:25:09.352Z,3.42
2022-07-26T07:27:37.710Z,5.05
2022-07-26T07:30:10.890Z,4.03
2022-07-26T07:32:39.474Z,5.82
2022-07-26T07:35:12.959Z,5.22
2022-07-26T07:37:53.367Z,7.03
2022-07-26T07:40:23.313Z,5.00
2022-07-26T07:42:52.421Z,2.67
2022-07-26T07:45:22.185Z,2.63
2022-07-26T07:47:50.437Z,4.90
2022-07-26T07:50:32.675Z,2.78
2022-07-26T07:53:02.526Z,2.58
2022-07-26T07:55:40.198Z,4.38
2022-07-26T07:58:11.069Z,5.25
2022-07-26T08:00:41.074Z,8.98
2022-07-26T08:03:09.794Z,3.53
2022-07-26T08:05:40.510Z,5.45
2022-07-26T08:08:09.552Z,6.53
2022-07-26T08:10:38.801Z,6.60
2022-07-26T08:13:17.493Z,6.22
2022-07-26T08:15:51.676Z,7.13
2022-07-26T08:18:21.684Z,3.40
2022-07-26T08:20:53.654Z,4.32
2022-07-26T08:23:22.880Z,4.60
2022-07-26T08:26:03.210Z,4.22
2022-07-26T08:28:47.397Z,3.38
2022-07-26T08:31:20.082Z,6.25
2022-07-26T08:33:49.611Z,4.22
2022-07-26T08:36:19.004Z,3.13
2022-07-26T08:38:48.018Z,2.95
2022-07-26T08:41:18.304Z,4.70
2022-07-26T08:43:53.185Z,5.18
2022-07-26T08:46:27.412Z,3.28
2022-07-26T08:48:57.086Z,4.82
2022-07-26T08:51:27.454Z,3.15
2022-07-26T08:54:04.789Z,3.38
2022-07-26T08:56:35.924Z,5.18
2022-07-26T08:59:06.986Z,4.75
2022-07-26T09:01:50.486Z,4.13
2022-07-26T09:04:31.645Z,2.45
2022-07-26T09:07:06.018Z,3.00
2022-07-26T09:09:37.583Z,2.53
2022-07-26T09:12:17.957Z,3.83
2022-07-26T09:14:47.672Z,2.38
2022-07-26T09:17:20.222Z,4.38
2022-07-26T09:20:07.812Z,3.38
2022-07-26T09:22:36.697Z,2.78
2022-07-26T09:25:21.285Z,3.30
2022-07-26T09:27:49.812Z,3.67
2022-07-26T09:30:18.755Z,2.42
2022-07-26T09:33:02.324Z,4.45
2022-07-26T09:35:50.869Z,5.85
2022-07-26T09:38:20.847Z,3.85
2022-07-26T09:40:51.530Z,7.40
2022-07-26T09:43:23.651Z,3.20
2022-07-26T09:46:06.054Z,4.20
2022-07-26T09:49:08.121Z,3.33
2022-07-26T09:51:38.924Z,5.18
2022-07-26T09:54:08.569Z,3.53
2022-07-26T09:56:46.675Z,3.47
2022-07-26T09:59:17.567Z,2.22
2022-07-26T10:01:46.654Z,3.20
2022-07-26T10:04:17.454Z,4.60
2022-07-26T10:06:46.359Z,2.00
2022-07-26T10:09:16.376Z,3.72
2022-07-26T10:11:51.663Z,4.53
2022-07-26T10:14:40.161Z,2.80
2022-07-26T10:17:42.531Z,4.93
2022-07-26T10:20:46.591Z,3.38
2022-07-26T10:23:48.771Z,4.10
2022-07-26T10:26:38.014Z,4.22
2022-07-26T10:29:36.524Z,6.05
2022-07-26T10:32:21.178Z,3.35
2022-07-26T10:34:49.726Z,2.35
2022-07-26T10:37:29.706Z,4.32
2022-07-26T10:40:30.241Z,2.75
2022-07-26T10:46:28.040Z,4.55
2022-07-26T10:49:03.549Z,4.45
2022-07-26T10:51:35.807Z,2.20
2022-07-26T10:54:08.910Z,3.78
2022-07-26T10:56:37.625Z,5.05
2022-07-26T10:59:07.009Z,7.45
2022-07-26T11:01:36.716Z,3.20
2022-07-26T11:04:06.868Z,3.60
2022-07-26T11:06:35.689Z,3.42
2022-07-26T11:09:13.508Z,2.33
2022-07-26T11:11:47.150Z,3.80
2022-07-26T11:14:18.474Z,2.67
2022-07-26T11:16:50.534Z,4.13
2022-07-26T11:19:26.129Z,1.98
2022-07-26T11:21:58.840Z,2.95
2022-07-26T11:24:29.581Z,3.40
2022-07-26T11:27:03.222Z,2.58
2022-07-26T11:29:37.892Z,1.60
2022-07-26T11:32:18.147Z,1.83
2022-07-26T11:34:47.023Z,5.80
2022-07-26T11:37:15.939Z,6.07
2022-07-26T11:39:45.522Z,2.90
2022-07-26T11:42:16.234Z,2.22
2022-07-26T11:44:45.932Z,2.67
2022-07-26T11:47:19.901Z,3.50
2022-07-26T11:50:01.075Z,3.08
2022-07-26T11:52:37.582Z,2.35
2022-07-26T11:55:09.285Z,1.50
2022-07-26T11:57:37.793Z,2.83
2022-07-26T12:00:08.296Z,4.00
2022-07-26T12:02:42.756Z,1.92
2022-07-26T12:05:16.683Z,4.95
2022-07-26T12:07:57.253Z,2.60
2022-07-26T12:10:27.532Z,3.08
2022-07-26T12:13:10.191Z,2.72
2022-07-26T12:15:52.524Z,3.17
2022-07-26T12:18:29.866Z,2.05
2022-07-26T12:21:05.182Z,2.17
2022-07-26T12:23:48.114Z,11.52
2022-07-26T12:26:26.621Z,2.25
2022-07-26T12:28:56.409Z,4.28
2022-07-26T12:31:27.819Z,2.28
2022-07-26T12:33:56.832Z,1.80
2022-07-26T12:36:28.807Z,1.70
2022-07-26T12:38:59.420Z,3.20
2022-07-26T12:41:38.352Z,3.00
2022-07-26T12:44:11.491Z,3.53
2022-07-26T12:46:40.863Z,3.35
2022-07-26T12:49:09.324Z,3.30
2022-07-26T12:51:38.238Z,2.95
2022-07-26T12:54:07.249Z,3.70
2022-07-26T12:56:36.962Z,2.03
2022-07-26T12:59:05.390Z,3.63
2022-07-26T13:01:34.209Z,2.53
2022-07-26T13:04:02.826Z,4.13
2022-07-26T13:06:32.882Z,2.50
2022-07-26T13:09:01.834Z,2.00
2022-07-26T13:11:30.399Z,3.35
2022-07-26T13:14:00.069Z,3.95
2022-07-26T13:16:28.512Z,2.95
2022-07-26T13:18:56.791Z,4.00
2022-07-26T13:21:25.112Z,1.73
2022-07-26T13:23:53.502Z,2.75
2022-07-26T13:26:22.308Z,2.00
2022-07-26T13:28:50.965Z,2.72
2022-07-26T13:31:21.295Z,5.65
2022-07-26T13:33:49.623Z,3.63
2022-07-26T13:36:17.926Z,2.40
2022-07-26T13:38:46.268Z,2.97
2022-07-26T13:41:14.867Z,1.58
2022-07-26T13:43:43.292Z,2.78
2022-07-26T13:46:11.851Z,1.90
2022-07-26T13:48:59.630Z,1.60
2022-07-26T13:51:49.950Z,1.85
2022-07-26T13:54:20.375Z,1.20
2022-07-26T13:56:49.682Z,3.10
2022-07-26T13:59:18.933Z,2.15
2022-07-26T14:01:47.520Z,2.13
2022-07-26T14:04:17.484Z,3.05
2022-07-26T14:06:46.001Z,2.17
2022-07-26T14:09:15.764Z,3.13
2022-07-26T14:11:44.906Z,1.23
2022-07-26T14:14:14.967Z,3.03
2022-07-26T14:16:43.701Z,4.32
2022-07-26T14:19:17.995Z,3.72
2022-07-26T14:21:59.213Z,4.80
2022-07-26T14:24:29.194Z,3.40
2022-07-26T14:26:59.662Z,1.88
2022-07-26T14:29:29.343Z,1.17
2022-07-26T14:31:57.803Z,1.67
2022-07-26T14:34:27.644Z,2.90
2022-07-26T14:36:56.018Z,1.17
2022-07-26T14:39:24.685Z,6.47
2022-07-26T14:41:53.288Z,2.65
2022-07-26T14:44:21.809Z,2.15
2022-07-26T14:46:50.109Z,2.25
2022-07-26T14:49:18.537Z,1.63
2022-07-26T14:51:48.519Z,3.10
2022-07-26T14:54:18.246Z,3.13
2022-07-26T14:56:46.576Z,8.07
2022-07-26T14:59:14.934Z,3.15
2022-07-26T15:01:43.270Z,3.75
2022-07-26T15:04:12.481Z,2.25
2022-07-26T15:06:41.066Z,1.98
2022-07-26T15:09:10.717Z,2.53
2022-07-26T15:11:39.016Z,1.92
2022-07-26T15:14:07.899Z,1.70
2022-07-26T15:16:36.478Z,1.33
2022-07-26T15:19:04.997Z,2.13
2022-07-26T15:21:33.644Z,3.08
2022-07-26T15:24:02.533Z,1.67
2022-07-26T15:26:32.191Z,2.63
2022-07-26T15:29:00.462Z,3.05
2022-07-26T15:31:37.177Z,2.83
2022-07-26T15:34:08.926Z,2.85
2022-07-26T15:36:37.812Z,7.82
2022-07-26T15:39:16.492Z,1.15
2022-07-26T15:41:47.821Z,2.75
2022-07-26T15:44:19.005Z,4.60
2022-07-26T15:46:48.630Z,1.98
2022-07-26T15:49:18.068Z,2.22
2022-07-26T15:51:46.765Z,4.10
2022-07-26T15:54:16.306Z,2.65
2022-07-26T15:56:46.116Z,1.88
2022-07-26T15:59:14.523Z,1.23
2022-07-26T16:01:42.945Z,3.42
2022-07-26T16:04:11.700Z,2.83
2022-07-26T16:06:40.572Z,1.52
2022-07-26T16:09:24.134Z,0.80
2022-07-26T16:11:54.069Z,1.95
2022-07-26T16:14:22.373Z,1.10
2022-07-26T16:16:51.054Z,2.85
2022-07-26T16:19:19.544Z,1.67
2022-07-26T16:21:47.879Z,2.30
2022-07-26T16:24:16.288Z,1.40
2022-07-26T16:26:46.923Z,2.50
2022-07-26T16:29:17.376Z,1.88
2022-07-26T16:31:45.856Z,2.53
2022-07-26T16:34:14.743Z,1.38
2022-07-26T16:36:43.259Z,5.43
2022-07-26T16:39:12.038Z,3.00
2022-07-26T16:41:40.558Z,2.75
2022-07-26T16:44:09.235Z,2.38
2022-07-26T16:46:38.987Z,0.90
2022-07-26T16:49:07.500Z,3.00
2022-07-26T16:51:36.104Z,1.42
2022-07-26T16:54:04.662Z,3.17
2022-07-26T16:56:33.026Z,2.83
2022-07-26T16:59:01.473Z,3.85
2022-07-26T17:01:30.172Z,2.28
2022-07-26T17:03:59.965Z,4.25
2022-07-26T17:06:28.244Z,3.80
2022-07-26T17:08:56.648Z,1.13
2022-07-26T17:11:26.646Z,1.23
2022-07-26T17:14:01.275Z,2.95
2022-07-26T17:16:30.907Z,4.00
2022-07-26T17:19:02.766Z,4.65
2022-07-26T17:21:33.252Z,1.35
2022-07-26T17:24:08.837Z,3.47
2022-07-26T17:27:23.176Z,1.55
2022-07-26T17:29:55.998Z,2.83
2022-07-26T17:32:40.817Z,2.08
2022-07-26T17:35:14.667Z,1.35
2022-07-26T17:37:45.359Z,3.28
2022-07-26T17:40:17.507Z,1.50
2022-07-26T17:42:47.514Z,3.30
2022-07-26T17:45:17.656Z,2.25
2022-07-26T17:47:47.952Z,2.75
2022-07-26T17:50:35.959Z,3.25
2022-07-26T17:53:10.498Z,1.58
2022-07-26T17:55:40.415Z,3.63
2022-07-26T17:58:22.177Z,4.43
2022-07-26T18:00:54.124Z,2.22
2022-07-26T18:03:25.671Z,1.23
2022-07-26T18:05:57.004Z,5.00
2022-07-26T18:08:27.377Z,1.58
2022-07-26T18:10:59.229Z,2.42
2022-07-26T18:13:29.762Z,3.70
2022-07-26T18:16:04.115Z,2.22
2022-07-26T18:18:38.169Z,2.05
2022-07-26T18:24:50.079Z,1.88
2022-07-26T18:27:39.740Z,1.15
2022-07-26T18:30:48.563Z,2.05
2022-07-26T18:33:20.052Z,2.65
2022-07-26T18:35:52.349Z,4.90
2022-07-26T18:38:23.333Z,2.50
2022-07-26T18:40:52.824Z,1.88
2022-07-26T18:43:22.281Z,3.10
2022-07-26T18:45:51.825Z,1.27
2022-07-26T18:48:21.530Z,1.10
2022-07-26T18:50:53.718Z,1.33
2022-07-26T18:53:24.731Z,2.22
2022-07-26T18:55:54.465Z,4.25
2022-07-26T18:58:24.811Z,3.08
2022-07-26T19:00:57.086Z,6.65
2022-07-26T19:03:26.345Z,9.45
2022-07-26T19:05:55.732Z,4.13
2022-07-26T19:08:26.668Z,1.80
2022-07-26T19:10:56.251Z,5.15
2022-07-26T19:13:25.761Z,4.90
2022-07-26T19:15:55.051Z,3.72
2022-07-26T19:18:24.725Z,7.35
2022-07-26T19:20:53.623Z,3.78
2022-07-26T19:23:22.185Z,5.20
2022-07-26T19:25:52.275Z,4.13
2022-07-26T19:28:20.901Z,2.38
2022-07-26T19:30:49.421Z,3.33
2022-07-26T19:33:18.893Z,2.30
2022-07-26T19:35:47.499Z,5.28
2022-07-26T19:38:15.932Z,6.70
2022-07-26T19:40:46.172Z,2.55
2022-07-26T19:43:15.914Z,1.85
2022-07-26T19:45:44.523Z,2.00
2022-07-26T19:48:13.482Z,4.30
2022-07-26T19:50:41.893Z,4.00
2022-07-26T19:53:10.410Z,1.10
2022-07-26T19:55:41.706Z,2.78
2022-07-26T19:58:10.403Z,2.28
2022-07-26T20:00:41.150Z,1.55
2022-07-26T20:03:10.214Z,4.10
2022-07-26T20:05:40.068Z,2.72
2022-07-26T20:08:08.489Z,3.15
2022-07-26T20:10:36.962Z,1.80
2022-07-26T20:13:07.023Z,3.00
2022-07-26T20:15:35.494Z,4.15
2022-07-26T20:18:05.549Z,6.30
2022-07-26T20:20:34.415Z,3.45
2022-07-26T20:23:04.833Z,3.38
2022-07-26T20:25:33.256Z,1.02
2022-07-26T20:28:01.733Z,1.60
2022-07-26T20:30:30.704Z,3.05
2022-07-26T20:32:59.129Z,1.70
2022-07-26T20:35:29.143Z,3.00
2022-07-26T20:37:57.542Z,1.92
2022-07-26T20:40:28.687Z,3.33
2022-07-26T20:42:57.131Z,2.95
2022-07-26T20:45:26.002Z,1.40
2022-07-26T20:47:55.681Z,1.30
2022-07-26T20:50:24.821Z,1.45
2022-07-26T20:52:54.537Z,1.58
2022-07-26T20:55:24.033Z,1.90
2022-07-26T20:57:52.932Z,2.65
2022-07-26T21:00:21.409Z,3.58
2022-07-26T21:02:49.817Z,3.53
2022-07-26T21:05:18.869Z,3.60
2022-07-26T21:07:55.579Z,5.18
2022-07-26T21:10:33.365Z,4.75
2022-07-26T21:13:02.971Z,5.47
2022-07-26T21:15:33.516Z,2.75
2022-07-26T21:18:09.972Z,2.47
2022-07-26T21:20:49.247Z,2.85
2022-07-26T21:23:20.211Z,2.75
2022-07-26T21:26:00.640Z,3.13
2022-07-26T21:28:31.650Z,2.53
2022-07-26T21:31:02.402Z,3.08
2022-07-26T21:33:34.035Z,5.10
2022-07-26T21:36:08.507Z,3.22
2022-07-26T21:38:38.229Z,1.98
2022-07-26T21:41:09.290Z,4.10
2022-07-26T21:43:43.259Z,7.53
2022-07-26T21:46:14.273Z,7.32
2022-07-26T21:48:43.761Z,1.73
2022-07-26T21:51:13.088Z,4.93
2022-07-26T21:53:42.530Z,1.98
2022-07-26T21:56:15.413Z,5.18
2022-07-26T21:58:47.016Z,1.88
2022-07-26T22:04:01.451Z,5.50
2022-07-26T22:06:31.190Z,3.92
2022-07-26T22:09:00.912Z,1.50
2022-07-26T22:11:31.678Z,2.17
2022-07-26T22:14:01.124Z,4.68
2022-07-26T22:16:30.143Z,6.80
2022-07-26T22:18:58.946Z,4.80
2022-07-26T22:21:30.920Z,2.45
2022-07-26T22:23:59.284Z,1.60
2022-07-26T22:26:31.352Z,1.90
2022-07-26T22:29:01.581Z,2.15
2022-07-26T22:31:30.241Z,1.40
2022-07-26T22:33:58.576Z,1.98
2022-07-26T22:36:26.986Z,2.63
2022-07-26T22:38:55.405Z,4.90
2022-07-26T22:41:23.704Z,2.92
2022-07-26T22:43:53.222Z,2.97
2022-07-26T22:46:27.491Z,4.13
2022-07-26T22:48:57.603Z,5.40
2022-07-26T22:51:25.810Z,3.42
2022-07-26T22:53:54.013Z,3.53
2022-07-26T22:56:22.573Z,5.75
2022-07-26T22:58:50.800Z,2.88
2022-07-26T23:01:19.519Z,4.53
2022-07-26T23:03:49.725Z,2.17
2022-07-26T23:06:31.481Z,2.90
2022-07-26T23:09:00.733Z,4.90
2022-07-26T23:11:31.757Z,1.83
2022-07-26T23:14:00.364Z,3.90
2022-07-26T23:16:28.959Z,4.45
2022-07-26T23:18:58.700Z,5.35
2022-07-26T23:21:27.674Z,3.15
2022-07-26T23:23:56.050Z,2.17
2022-07-26T23:26:24.605Z,2.10
2022-07-26T23:28:52.922Z,2.55
2022-07-26T23:31:21.566Z,2.13
2022-07-26T23:33:50.861Z,2.33
2022-07-26T23:36:25.149Z,2.85
2022-07-26T23:38:54.576Z,3.40
2022-07-26T23:41:23.599Z,2.55
2022-07-26T23:43:52.427Z,5.80
2022-07-26T23:46:20.889Z,4.38
2022-07-26T23:48:49.728Z,2.72
2022-07-26T23:51:19.360Z,4.25
2022-07-26T23:53:49.045Z,3.60
2022-07-26T23:56:18.002Z,3.22
2022-07-26T23:58:47.248Z,4.85
